Time;durP1;ratioP1;P1;durP2;ratioP2;P2;SDS_P1;SDS_P2;PMS_P1;PMS_P2;Temp;Humidity;BMP_temperature;BMP_pressure;BME280_temperature;BME280_humidity;BME280_pressure;Samples;Min_cycle;Max_cycle;Signal;HPM_P1;HPM_P2
2023/07/10 00:01:15;;;;;;;;;;;;;;;-144.99;100.00;52056.78;4979863;28;19930;-65
2023/07/10 00:03:42;;;;;;;;;;;;;;;-144.99;100.00;52064.91;4985296;28;19952;-65
2023/07/10 00:06:10;;;;;;;;;;;;;;;-144.99;100.00;52113.84;4983964;28;20000;-64
2023/07/10 00:08:36;;;;;;;;;;;;;;;-144.99;100.00;52091.41;4979259;28;19929;-65
2023/07/10 00:11:03;;;;;;;;;;;;;;;-144.99;100.00;52093.44;4979514;28;19940;-70
2023/07/10 00:13:30;;;;;;;;;;;;;;;-144.99;100.00;52083.25;4980216;28;19930;-65
2023/07/10 00:15:57;;;;;;;;;;;;;;;-144.99;100.00;52066.97;4976488;28;19936;-62
2023/07/10 00:18:25;;;;;;;;;;;;;;;-144.99;100.00;52081.22;4983501;28;19929;-62
2023/07/10 00:20:52;;;;;;;;;;;;;;;-144.99;100.00;52101.59;4638517;28;10000360;-64
2023/07/10 00:23:19;;;;;;;;;;;;;;;-144.99;100.00;52105.69;4977079;28;19941;-64
2023/07/10 00:25:45;;;;;;;;;;;;;;;-144.99;100.00;52105.69;4977139;28;20391;-64
2023/07/10 00:28:13;;;;;;;;;;;;;;;-144.99;100.00;52085.31;4976897;28;19937;-64
2023/07/10 00:30:40;;;;;;;;;;;;;;;-144.99;100.00;52069.00;4981417;28;19966;-66
2023/07/10 00:33:10;;;;;;;;;;;;;;;-144.99;100.00;52093.44;4978831;28;19933;-66
2023/07/10 00:35:38;;;;;;;;;;;;;;;-144.99;100.00;52085.31;4979379;28;20276;-66
2023/07/10 00:38:14;;;;;;;;;;;;;;;-144.99;100.00;52081.22;4977686;28;19988;-65
2023/07/10 00:40:44;;;;;;;;;;;;;;;-144.99;100.00;52101.59;5013625;22;19932;-63
2023/07/10 00:43:17;;;;;;;;;;;;;;;-144.99;100.00;52073.06;5036621;28;20360;-64
2023/07/10 00:45:44;;;;;;;;;;;;;;;-144.99;100.00;52138.28;5038018;28;19932;-65
2023/07/10 00:48:13;;;;;;;;;;;;;;;-144.99;100.00;52064.91;5041968;28;20381;-63
2023/07/10 00:50:45;;;;;;;;;;;;;;;-144.99;100.00;52089.38;5035237;28;20214;-65
2023/07/10 00:53:14;;;;;;;;;;;;;;;-144.99;100.00;52101.59;5019709;28;20027;-68
2023/07/10 00:55:43;;;;;;;;;;;;;;;-144.99;100.00;52089.38;5019119;28;19929;-64
2023/07/10 00:58:18;;;;;;;;;;;;;;;-144.99;100.00;52081.22;5017716;28;19936;-64
2023/07/10 01:00:59;;;;;;;;;;;;;;;-144.99;100.00;52077.16;5019553;28;20097;-64
2023/07/10 01:03:26;;;;;;;;;;;;;;;-144.99;100.00;52077.16;5020812;28;20370;-65
2023/07/10 01:05:54;;;;;;;;;;;;;;;-144.99;100.00;52097.53;5022465;28;20401;-65
2023/07/10 01:08:23;;;;;;;;;;;;;;;-144.99;100.00;52115.88;5018365;28;19944;-66
2023/07/10 01:10:50;;;;;;;;;;;;;;;-144.99;100.00;52083.25;5026687;28;20305;-65
2023/07/10 01:13:16;;;;;;;;;;;;;;;-144.99;100.00;52066.97;5024682;28;19932;-66
2023/07/10 01:15:43;;;;;;;;;;;;;;;-144.99;100.00;52126.06;5025597;28;20382;-65
2023/07/10 01:18:11;;;;;;;;;;;;;;;-144.99;100.00;52101.59;5028708;28;19929;-65
2023/07/10 01:20:40;;;;;;;;;;;;;;;-144.99;100.00;52077.16;5023975;28;19925;-68
2023/07/10 01:23:08;;;;;;;;;;;;;;;-144.99;100.00;52093.44;5026291;28;20254;-68
2023/07/10 01:25:38;;;;;;;;;;;;;;;-144.99;100.00;52073.06;5024764;28;19940;-68
2023/07/10 01:28:09;;;;;;;;;;;;;;;-144.99;100.00;52093.44;5028300;28;19925;-68
2023/07/10 01:30:37;;;;;;;;;;;;;;;-144.99;100.00;52117.91;5023389;28;19929;-68
2023/07/10 01:33:04;;;;;;;;;;;;;;;-144.99;100.00;52093.44;5019350;28;19943;-70
2023/07/10 01:35:33;;;;;;;;;;;;;;;-144.99;100.00;52062.88;5023507;28;20402;-65
2023/07/10 01:37:59;;;;;;;;;;;;;;;-144.99;100.00;52089.38;5032282;28;19928;-68
2023/07/10 01:40:30;;;;;;;;;;;;;;;-144.99;100.00;52113.84;5028962;28;19981;-67
2023/07/10 01:42:58;;;;;;;;;;;;;;;-144.99;100.00;52093.44;5031131;28;20309;-67
2023/07/10 01:45:24;;;;;;;;;;;;;;;-144.99;100.00;52066.97;5028440;28;19928;-67
2023/07/10 01:47:52;;;;;;;;;;;;;;;-144.99;100.00;52097.53;5027024;28;19929;-67
2023/07/10 01:50:20;;;;;;;;;;;;;;;-144.99;100.00;52109.75;5023315;28;19964;-67
2023/07/10 01:52:46;;;;;;;;;;;;;;;-144.99;100.00;52101.59;5023325;28;19925;-67
2023/07/10 01:55:15;;;;;;;;;;;;;;;-144.99;100.00;52117.91;5027033;28;20019;-68
2023/07/10 01:57:43;;;;;;;;;;;;;;;-144.99;100.00;52089.38;5022444;28;20389;-68
2023/07/10 02:00:12;;;;;;;;;;;;;;;-144.99;100.00;52089.38;5022513;28;20405;-67
2023/07/10 02:02:39;;;;;;;;;;;;;;;-144.99;100.00;52089.38;5026151;28;20283;-70
2023/07/10 02:05:06;;;;;;;;;;;;;;;-144.99;100.00;52093.44;5030304;28;19925;-67
2023/07/10 02:07:32;;;;;;;;;;;;;;;-144.99;100.00;52105.69;5033037;28;19936;-64
2023/07/10 02:09:59;;;;;;;;;;;;;;;-144.99;100.00;52105.69;5023143;28;19930;-64
2023/07/10 02:12:26;;;;;;;;;;;;;;;-144.99;100.00;52093.44;5020135;28;19925;-64
2023/07/10 02:14:53;;;;;;;;;;;;;;;-144.99;100.00;52101.59;5020164;28;19940;-65
2023/07/10 02:17:20;;;;;;;;;;;;;;;-144.99;100.00;52083.25;5019816;28;19925;-61
2023/07/10 02:19:47;;;;;;;;;;;;;;;-144.99;100.00;52085.31;5020202;28;20382;-64
2023/07/10 02:22:13;;;;;;;;;;;;;;;-144.99;100.00;52060.84;5020726;28;19937;-65
2023/07/10 02:24:41;;;;;;;;;;;;;;;-144.99;100.00;52093.44;5018355;28;20613;-65
2023/07/10 02:27:08;;;;;;;;;;;;;;;-144.99;100.00;52117.91;5020722;28;19929;-66
2023/07/10 02:29:34;;;;;;;;;;;;;;;-144.99;100.00;52121.97;5026118;28;19971;-64
2023/07/10 02:32:03;;;;;;;;;;;;;;;-144.99;100.00;52093.44;5023299;28;19925;-64
2023/07/10 02:34:30;;;;;;;;;;;;;;;-144.99;100.00;52142.38;5020975;28;19932;-65
2023/07/10 02:36:56;;;;;;;;;;;;;;;-144.99;100.00;52113.84;5028505;28;20216;-65
2023/07/10 02:39:23;;;;;;;;;;;;;;;-144.99;100.00;52099.56;5024492;28;19936;-65
2023/07/10 02:41:49;;;;;;;;;;;;;;;-144.99;100.00;52138.28;5021689;28;20352;-67
2023/07/10 02:44:16;;;;;;;;;;;;;;;-144.99;100.00;52130.13;5025643;28;19925;-70
2023/07/10 02:46:43;;;;;;;;;;;;;;;-144.99;100.00;52056.78;5028730;28;20013;-69
2023/07/10 02:49:11;;;;;;;;;;;;;;;-144.99;100.00;52113.84;5030881;28;20029;-69
2023/07/10 02:51:37;;;;;;;;;;;;;;;-144.99;100.00;52146.44;5036311;28;20000;-70
2023/07/10 02:54:09;;;;;;;;;;;;;;;-144.99;100.00;52109.75;5034482;28;19933;-70
2023/07/10 02:56:36;;;;;;;;;;;;;;;-144.99;100.00;52105.69;5036304;28;19933;-70
2023/07/10 02:59:02;;;;;;;;;;;;;;;-144.99;100.00;52138.28;5035744;28;20333;-70
2023/07/10 03:01:29;;;;;;;;;;;;;;;-144.99;100.00;52111.78;5035571;28;19961;-71
2023/07/10 03:03:56;;;;;;;;;;;;;;;-144.99;100.00;52128.09;5033671;28;20008;-69
2023/07/10 03:06:24;;;;;;;;;;;;;;;-144.99;100.00;52097.53;5033939;28;19936;-70
2023/07/10 03:08:50;;;;;;;;;;;;;;;-144.99;100.00;52085.31;5033783;28;19960;-69
2023/07/10 03:11:17;;;;;;;;;;;;;;;-144.99;100.00;52126.06;5033582;28;19953;-69
2023/07/10 03:13:44;;;;;;;;;;;;;;;-144.99;100.00;52121.97;5031018;28;19932;-69
2023/07/10 03:16:12;;;;;;;;;;;;;;;-144.99;100.00;52069.00;5031275;28;19936;-70
2023/07/10 03:18:39;;;;;;;;;;;;;;;-144.99;100.00;52138.28;5031682;28;19929;-67
2023/07/10 03:21:06;;;;;;;;;;;;;;;-144.99;100.00;52130.13;5032924;28;19944;-72
2023/07/10 03:23:34;;;;;;;;;;;;;;;-144.99;100.00;52166.81;5036109;28;19932;-72
2023/07/10 03:26:01;;;;;;;;;;;;;;;-144.99;100.00;52101.59;5025127;28;19986;-65
2023/07/10 03:28:28;;;;;;;;;;;;;;;-144.99;100.00;52109.75;5021092;28;19934;-64
2023/07/10 03:30:55;;;;;;;;;;;;;;;-144.99;100.00;52105.69;5028103;28;20032;-62
2023/07/10 03:33:21;;;;;;;;;;;;;;;-144.99;100.00;52085.31;5025553;28;19925;-62
2023/07/10 03:35:48;;;;;;;;;;;;;;;-144.99;100.00;52115.88;5027152;28;19925;-62
2023/07/10 03:38:15;;;;;;;;;;;;;;;-144.99;100.00;52111.78;5028154;28;20024;-61
2023/07/10 03:40:50;;;;;;;;;;;;;;;-144.99;100.00;52121.97;5027366;28;19929;-61
2023/07/10 03:43:17;;;;;;;;;;;;;;;-144.99;100.00;52093.44;5029177;28;19925;-61
2023/07/10 03:45:44;;;;;;;;;;;;;;;-144.99;100.00;52081.22;5024265;28;19925;-67
2023/07/10 03:48:11;;;;;;;;;;;;;;;-144.99;100.00;52113.84;5027755;28;19932;-69
2023/07/10 03:50:37;;;;;;;;;;;;;;;-144.99;100.00;52097.53;5029204;28;19975;-68
2023/07/10 03:53:04;;;;;;;;;;;;;;;-144.99;100.00;52126.06;5024612;28;20198;-69
2023/07/10 03:55:31;;;;;;;;;;;;;;;-144.99;100.00;52093.44;5021109;28;20315;-69
2023/07/10 03:57:59;;;;;;;;;;;;;;;-144.99;100.00;52105.69;5020813;28;19980;-71
2023/07/10 04:00:26;;;;;;;;;;;;;;;-144.99;100.00;52113.84;5020880;28;20391;-70
2023/07/10 04:02:52;;;;;;;;;;;;;;;-144.99;100.00;52121.97;5018840;28;20406;-66
2023/07/10 04:05:19;;;;;;;;;;;;;;;-144.99;100.00;52134.22;5024513;28;19940;-63
2023/07/10 04:07:45;;;;;;;;;;;;;;;-144.99;100.00;52095.50;5021479;28;19955;-63
2023/07/10 04:10:12;;;;;;;;;;;;;;;-144.99;100.00;52113.84;5018377;28;19933;-64
2023/07/10 04:12:40;;;;;;;;;;;;;;;-144.99;100.00;52119.94;5017709;28;19933;-65
2023/07/10 04:15:09;;;;;;;;;;;;;;;-144.99;100.00;52136.25;5021867;28;19925;-63
2023/07/10 04:17:35;;;;;;;;;;;;;;;-144.99;100.00;52109.75;5016514;28;20358;-64
2023/07/10 04:20:02;;;;;;;;;;;;;;;-144.99;100.00;52101.59;5020154;28;19925;-63
2023/07/10 04:22:29;;;;;;;;;;;;;;;-144.99;100.00;52081.22;5018421;28;20386;-62
2023/07/10 04:25:03;;;;;;;;;;;;;;;-144.99;100.00;52052.69;5018947;28;19925;-62
2023/07/10 04:27:30;;;;;;;;;;;;;;;-144.99;100.00;52134.22;5018874;28;19933;-66
2023/07/10 04:29:57;;;;;;;;;;;;;;;-144.99;100.00;52081.22;5018777;28;19932;-67
2023/07/10 04:32:25;;;;;;;;;;;;;;;-144.99;100.00;52121.97;5019400;28;19933;-67
2023/07/10 04:34:52;;;;;;;;;;;;;;;-144.99;100.00;52089.38;5018421;28;20345;-66
2023/07/10 04:37:18;;;;;;;;;;;;;;;-144.99;100.00;52105.69;5024658;28;19933;-66
2023/07/10 04:39:45;;;;;;;;;;;;;;;-144.99;100.00;52089.38;5025477;28;19989;-67
2023/07/10 04:42:11;;;;;;;;;;;;;;;-144.99;100.00;52138.28;5026325;28;19928;-66
2023/07/10 04:44:38;;;;;;;;;;;;;;;-144.99;100.00;52113.84;5026120;28;19936;-67
2023/07/10 04:47:05;;;;;;;;;;;;;;;-144.99;100.00;52073.06;5014787;28;19956;-68
2023/07/10 04:49:33;;;;;;;;;;;;;;;-144.99;100.00;52101.59;5019030;28;19933;-67
2023/07/10 04:52:00;;;;;;;;;;;;;;;-144.99;100.00;52109.75;5019440;28;19929;-67
2023/07/10 04:54:26;;;;;;;;;;;;;;;-144.99;100.00;52109.75;5019880;28;19933;-68
2023/07/10 04:56:53;;;;;;;;;;;;;;;-144.99;100.00;52113.84;5020045;28;19925;-68
2023/07/10 04:59:20;;;;;;;;;;;;;;;-144.99;100.00;52103.66;5022031;28;19936;-66
2023/07/10 05:01:47;;;;;;;;;;;;;;;-144.99;100.00;52138.28;5021186;28;19935;-66
2023/07/10 05:04:13;;;;;;;;;;;;;;;-144.99;100.00;52101.59;5026693;28;19955;-66
2023/07/10 05:06:41;;;;;;;;;;;;;;;-144.99;100.00;52093.44;5021819;28;20063;-65
2023/07/10 05:09:08;;;;;;;;;;;;;;;-144.99;100.00;52113.84;5022757;28;19937;-66
2023/07/10 05:11:35;;;;;;;;;;;;;;;-144.99;100.00;52081.22;5026326;28;19950;-70
2023/07/10 05:14:01;;;;;;;;;;;;;;;-144.99;100.00;52071.03;4331024;28;10000709;-69
2023/07/10 05:16:30;;;;;;;;;;;;;;;-144.99;100.00;52077.16;5017131;28;20032;-70
2023/07/10 05:18:57;;;;;;;;;;;;;;;-144.99;100.00;52077.16;5021496;28;20342;-69
2023/07/10 05:21:23;;;;;;;;;;;;;;;-144.99;99.93;52032.31;5023262;28;20278;-69
2023/07/10 05:23:51;;;;;;;;;;;;;;;-144.99;99.42;52069.00;5051254;28;19966;-69
2023/07/10 05:26:19;;;;;;;;;;;;;;;-144.99;98.80;52105.69;5028683;28;19940;-70
2023/07/10 05:28:46;;;;;;;;;;;;;;;-144.99;98.71;52081.22;5030433;28;20338;-70
2023/07/10 05:31:13;;;;;;;;;;;;;;;-144.99;97.92;52073.06;5027778;28;19929;-69
2023/07/10 05:33:40;;;;;;;;;;;;;;;-144.99;97.00;52073.06;5027294;28;20343;-70
2023/07/10 05:36:09;;;;;;;;;;;;;;;-144.99;97.04;52089.38;5027011;28;19933;-69
2023/07/10 05:38:36;;;;;;;;;;;;;;;-144.99;97.45;52091.41;5027639;28;19933;-68
2023/07/10 05:41:04;;;;;;;;;;;;;;;-144.99;99.03;52097.53;5023731;28;19931;-69
2023/07/10 05:43:31;;;;;;;;;;;;;;;-144.99;100.00;52121.97;5027612;28;19932;-68
2023/07/10 05:45:58;;;;;;;;;;;;;;;-144.99;100.00;52095.50;5030844;28;20450;-68
2023/07/10 05:48:25;;;;;;;;;;;;;;;-144.99;100.00;52109.75;5026376;28;20319;-68
2023/07/10 05:50:52;;;;;;;;;;;;;;;-144.99;100.00;52138.28;5023320;28;19963;-68
2023/07/10 05:53:20;;;;;;;;;;;;;;;-144.99;100.00;52130.13;5028815;28;19929;-68
2023/07/10 05:55:47;;;;;;;;;;;;;;;-144.99;100.00;52146.44;5031599;28;20279;-68
2023/07/10 05:58:16;;;;;;;;;;;;;;;-144.99;100.00;52115.88;5024151;28;20341;-69
2023/07/10 06:00:43;;;;;;;;;;;;;;;-144.99;100.00;52105.69;5023980;28;19936;-70
2023/07/10 06:03:10;;;;;;;;;;;;;;;-144.99;100.00;52101.59;5052816;28;19925;-69
2023/07/10 06:05:36;;;;;;;;;;;;;;;-144.99;100.00;52132.19;5033654;28;19996;-70
2023/07/10 06:08:03;;;;;;;;;;;;;;;-144.99;100.00;52146.44;5028744;28;19929;-69
2023/07/10 06:10:30;;;;;;;;;;;;;;;-144.99;100.00;52097.53;5029772;28;20298;-70
2023/07/10 06:12:57;;;;;;;;;;;;;;;-144.99;100.00;52126.06;5024181;28;19929;-70
2023/07/10 06:15:25;;;;;;;;;;;;;;;-144.99;100.00;52097.53;5029558;28;19939;-70
2023/07/10 06:17:51;;;;;;;;;;;;;;;-144.99;100.00;52101.59;5024460;28;19933;-70
2023/07/10 06:20:18;;;;;;;;;;;;;;;-144.99;100.00;52117.91;5029109;28;19928;-70
2023/07/10 06:22:45;;;;;;;;;;;;;;;-144.99;100.00;52124.03;5023150;28;19957;-69
2023/07/10 06:25:11;;;;;;;;;;;;;;;-144.99;100.00;52097.53;5019082;28;20273;-70
2023/07/10 06:27:38;;;;;;;;;;;;;;;-144.99;100.00;52113.84;5026702;28;19936;-69
2023/07/10 06:30:05;;;;;;;;;;;;;;;-144.99;100.00;52101.59;5027815;28;19952;-69
2023/07/10 06:32:34;;;;;;;;;;;;;;;-144.99;100.00;52134.22;5026661;28;19971;-69
2023/07/10 06:35:00;;;;;;;;;;;;;;;-144.99;100.00;52113.84;5027450;28;19932;-69
2023/07/10 06:37:27;;;;;;;;;;;;;;;-144.99;100.00;52168.84;5025649;28;20099;-69
2023/07/10 06:40:07;;;;;;;;;;;;;;;-144.99;100.00;52087.34;5030105;28;19933;-70
2023/07/10 06:42:34;;;;;;;;;;;;;;;-144.99;100.00;52117.91;5042082;28;19929;-70
2023/07/10 06:45:00;;;;;;;;;;;;;;;-144.99;100.00;52146.44;5025923;28;20282;-71
2023/07/10 06:47:27;;;;;;;;;;;;;;;-144.99;100.00;52134.22;5025969;28;20420;-70
2023/07/10 06:49:55;;;;;;;;;;;;;;;-144.99;100.00;52115.88;4677435;28;9999786;-69
2023/07/10 06:52:22;;;;;;;;;;;;;;;-144.99;100.00;52119.94;5026833;28;19941;-69
2023/07/10 06:54:49;;;;;;;;;;;;;;;-144.99;100.00;52146.44;5024783;28;19960;-70
2023/07/10 06:57:15;;;;;;;;;;;;;;;-144.99;100.00;52136.25;5028769;28;19929;-70
2023/07/10 06:59:42;;;;;;;;;;;;;;;-144.99;100.00;52109.75;5018885;28;19970;-69
2023/07/10 07:02:09;;;;;;;;;;;;;;;-144.99;100.00;52111.78;5021866;28;19925;-69
2023/07/10 07:04:36;;;;;;;;;;;;;;;-144.99;100.00;52138.28;5026432;28;20434;-70
2023/07/10 07:07:04;;;;;;;;;;;;;;;-144.99;100.00;52105.69;5025754;28;19936;-70
2023/07/10 07:09:31;;;;;;;;;;;;;;;-144.99;100.00;52117.91;5032866;28;19929;-70
2023/07/10 07:11:58;;;;;;;;;;;;;;;-144.99;100.00;52113.84;5029166;28;20398;-70
2023/07/10 07:14:25;;;;;;;;;;;;;;;-144.99;100.00;52154.59;5028094;28;19994;-70
2023/07/10 07:16:53;;;;;;;;;;;;;;;-144.99;100.00;52136.25;5019554;28;19966;-70
2023/07/10 07:19:20;;;;;;;;;;;;;;;-144.99;100.00;52101.59;5027177;28;19925;-69
2023/07/10 07:21:46;;;;;;;;;;;;;;;-144.99;100.00;52130.13;5015607;28;19937;-70
2023/07/10 07:24:14;;;;;;;;;;;;;;;-144.99;100.00;52130.13;5027155;28;19959;-70
2023/07/10 07:26:41;;;;;;;;;;;;;;;-144.99;100.00;52154.59;5025557;28;19951;-70
2023/07/10 07:29:08;;;;;;;;;;;;;;;-144.99;100.00;52113.84;5022784;28;20024;-69
2023/07/10 07:31:34;;;;;;;;;;;;;;;-144.99;100.00;52101.59;5019945;28;19925;-70
2023/07/10 07:34:01;;;;;;;;;;;;;;;-144.99;100.00;52117.91;5023747;28;20354;-70
2023/07/10 07:36:32;;;;;;;;;;;;;;;-144.99;100.00;52109.75;5026071;28;20441;-71
2023/07/10 07:38:58;;;;;;;;;;;;;;;-144.99;100.00;52121.97;5022321;28;20197;-70
2023/07/10 07:41:26;;;;;;;;;;;;;;;-144.99;100.00;52117.91;5023123;28;20012;-69
2023/07/10 07:43:53;;;;;;;;;;;;;;;-144.99;100.00;52138.28;5022913;28;19925;-70
2023/07/10 07:46:19;;;;;;;;;;;;;;;-144.99;100.00;52117.91;5020797;28;19935;-71
2023/07/10 07:48:46;;;;;;;;;;;;;;;-144.99;100.00;52079.19;5023339;28;19948;-69
2023/07/10 07:51:13;;;;;;;;;;;;;;;-144.99;100.00;52140.31;5023866;28;20364;-69
2023/07/10 07:53:40;;;;;;;;;;;;;;;-144.99;100.00;52077.16;5024360;28;19931;-68
2023/07/10 07:56:07;;;;;;;;;;;;;;;-144.99;100.00;52105.69;5023330;28;19956;-69
2023/07/10 07:58:35;;;;;;;;;;;;;;;-144.99;100.00;52099.56;5026319;28;19933;-69
2023/07/10 08:01:02;;;;;;;;;;;;;;;-144.99;100.00;52130.13;5024592;28;19940;-68
2023/07/10 08:03:29;;;;;;;;;;;;;;;-144.99;100.00;52121.97;5018248;28;19952;-69
2023/07/10 08:05:56;;;;;;;;;;;;;;;-144.99;100.00;52142.38;5026071;28;19929;-69
2023/07/10 08:08:23;;;;;;;;;;;;;;;-144.99;100.00;52117.91;5039039;28;19972;-69
2023/07/10 08:10:50;;;;;;;;;;;;;;;-144.99;100.00;52109.75;5047061;28;19936;-69
2023/07/10 08:13:17;;;;;;;;;;;;;;;-144.99;100.00;52089.38;5042965;28;19976;-69
2023/07/10 08:15:45;;;;;;;;;;;;;;;-144.99;100.00;52132.19;5040424;28;20457;-69
2023/07/10 08:18:12;;;;;;;;;;;;;;;-144.99;100.00;52101.59;5038812;28;19929;-69
2023/07/10 08:20:39;;;;;;;;;;;;;;;-144.99;100.00;52093.44;5037883;28;19932;-69
2023/07/10 08:23:06;;;;;;;;;;;;;;;-144.99;100.00;52077.16;5038072;28;20011;-69
2023/07/10 08:25:33;;;;;;;;;;;;;;;-144.99;99.64;52081.22;5041015;28;19929;-69
2023/07/10 08:28:01;;;;;;;;;;;;;;;-144.99;98.89;52052.69;5045415;28;20445;-69
2023/07/10 08:30:28;;;;;;;;;;;;;;;-144.99;97.22;52044.53;5040315;28;20013;-68
2023/07/10 08:32:56;;;;;;;;;;;;;;;-144.99;95.49;52089.38;5033047;28;19929;-68
2023/07/10 08:35:23;;;;;;;;;;;;;;;-144.99;94.93;52073.06;5034641;28;20027;-68
2023/07/10 08:37:50;;;;;;;;;;;;;;;-144.99;94.27;52038.44;5042368;28;19951;-68
2023/07/10 08:40:18;;;;;;;;;;;;;;;-144.99;93.04;52077.16;5038595;28;19929;-69
2023/07/10 08:42:44;;;;;;;;;;;;;;;-144.99;91.69;52101.59;5038312;28;19932;-69
2023/07/10 08:45:13;;;;;;;;;;;;;;;-144.99;90.49;52030.28;5032801;28;19948;-69
2023/07/10 08:47:42;;;;;;;;;;;;;;;-144.99;89.94;52069.00;5020606;28;19997;-69
2023/07/10 08:50:14;;;;;;;;;;;;;;;-144.99;90.56;52083.25;5014599;28;19929;-69
2023/07/10 08:52:45;;;;;;;;;;;;;;;-144.99;90.16;52048.63;5014532;28;19955;-68
2023/07/10 08:55:12;;;;;;;;;;;;;;;-144.99;89.42;52060.84;5023040;28;19936;-68
2023/07/10 08:57:43;;;;;;;;;;;;;;;-144.99;88.27;52056.78;5022683;28;19925;-68
2023/07/10 09:00:11;;;;;;;;;;;;;;;-144.99;86.21;52060.84;5022250;28;19936;-68
2023/07/10 09:02:40;;;;;;;;;;;;;;;-144.99;87.13;52060.84;5019553;28;20377;-70
2023/07/10 09:05:08;;;;;;;;;;;;;;;-144.99;86.71;52042.50;5022023;28;20032;-68
2023/07/10 09:07:42;;;;;;;;;;;;;;;-144.99;87.49;52081.22;5023328;28;19929;-68
2023/07/10 09:10:13;;;;;;;;;;;;;;;-144.99;85.72;52073.06;5019515;28;19929;-68
2023/07/10 09:12:41;;;;;;;;;;;;;;;-144.99;87.07;52077.16;5016227;28;19925;-68
2023/07/10 09:15:12;;;;;;;;;;;;;;;-144.99;86.61;52085.31;5020217;28;19933;-68
2023/07/10 09:17:43;;;;;;;;;;;;;;;-144.99;87.99;52115.88;5024426;28;19940;-68
2023/07/10 09:20:11;;;;;;;;;;;;;;;-144.99;87.68;52064.91;5024033;28;20399;-70
2023/07/10 09:22:44;;;;;;;;;;;;;;;-144.99;86.75;52073.06;5021208;28;19928;-68
2023/07/10 09:25:12;;;;;;;;;;;;;;;-144.99;83.41;52064.91;5021655;28;19932;-70
2023/07/10 09:27:41;;;;;;;;;;;;;;;-144.99;81.86;52056.78;5023409;28;20329;-70
2023/07/10 09:30:15;;;;;;;;;;;;;;;-144.99;82.07;52079.19;5021645;28;19929;-70
2023/07/10 09:32:42;;;;;;;;;;;;;;;-144.99;81.93;52077.16;5018939;28;19936;-68
2023/07/10 09:35:09;;;;;;;;;;;;;;;-144.99;80.71;52034.34;5020522;28;20357;-70
2023/07/10 09:37:37;;;;;;;;;;;;;;;-144.99;79.14;52050.66;5024938;28;20024;-68
2023/07/10 09:40:18;;;;;;;;;;;;;;;-144.99;78.33;52048.63;4953793;28;2010414;-67
2023/07/10 09:42:46;;;;;;;;;;;;;;;-144.99;79.14;52056.78;5028801;28;19929;-68
2023/07/10 09:45:16;;;;;;;;;;;;;;;-144.99;77.63;52042.50;5029809;28;19948;-68
2023/07/10 09:47:50;;;;;;;;;;;;;;;-144.99;76.86;51999.69;5018786;28;19929;-68
2023/07/10 09:50:19;;;;;;;;;;;;;;;-144.99;76.15;51983.41;5027872;28;20043;-68
2023/07/10 09:52:52;;;;;;;;;;;;;;;-144.99;74.71;52007.84;5030317;28;19928;-68
2023/07/10 09:55:18;;;;;;;;;;;;;;;-144.99;73.75;52064.91;5025523;28;20009;-68
2023/07/10 09:57:51;;;;;;;;;;;;;;;-144.99;73.13;52026.19;5029160;28;20313;-68
2023/07/10 10:00:18;;;;;;;;;;;;;;;-144.99;72.93;52069.00;5027813;28;19929;-68
2023/07/10 10:02:47;;;;;;;;;;;;;;;-144.99;73.88;52028.22;5021042;28;20021;-67
2023/07/10 10:05:17;;;;;;;;;;;;;;;-144.99;74.11;52052.69;5021102;28;19946;-68
2023/07/10 10:07:44;;;;;;;;;;;;;;;-144.99;74.54;52038.44;5030057;28;20401;-67
2023/07/10 10:10:19;;;;;;;;;;;;;;;-144.99;73.97;52024.16;5028805;28;19925;-68
2023/07/10 10:12:49;;;;;;;;;;;;;;;-144.99;74.11;52044.53;5020641;28;20318;-67
2023/07/10 10:15:20;;;;;;;;;;;;;;;-144.99;72.74;52030.28;5024802;28;19933;-68
2023/07/10 10:17:48;;;;;;;;;;;;;;;-144.99;72.66;52020.09;5021110;28;19930;-68
2023/07/10 10:20:18;;;;;;;;;;;;;;;-144.99;72.18;52036.38;5022522;28;19933;-68
2023/07/10 10:22:45;;;;;;;;;;;;;;;-144.99;72.14;52003.78;5027267;28;20366;-68
2023/07/10 10:25:16;;;;;;;;;;;;;;;-144.99;71.81;52036.38;5030479;28;20296;-68
2023/07/10 10:27:46;;;;;;;;;;;;;;;-144.99;71.66;52005.81;5027485;28;20127;-67
2023/07/10 10:30:21;;;;;;;;;;;;;;;-144.99;71.97;52036.38;5027861;28;19929;-68
2023/07/10 10:32:50;;;;;;;;;;;;;;;-144.99;71.81;52007.84;5024730;28;19939;-67
2023/07/10 10:35:21;;;;;;;;;;;;;;;-144.99;72.29;51971.16;5022319;28;19929;-68
2023/07/10 10:38:00;;;;;;;;;;;;;;;-144.99;73.55;52044.53;5023730;28;20309;-68
2023/07/10 10:40:31;;;;;;;;;;;;;;;-144.99;73.19;52069.00;5024742;28;20048;-68
2023/07/10 10:43:04;;;;;;;;;;;;;;;-144.99;73.44;52040.47;5025656;28;19929;-68
2023/07/10 10:45:34;;;;;;;;;;;;;;;-144.99;73.20;52016.00;5027418;28;20368;-68
2023/07/10 10:48:10;;;;;;;;;;;;;;;-144.99;72.84;52003.78;5020877;28;20460;-70
2023/07/10 10:50:52;;;;;;;;;;;;;;;-144.99;71.48;51971.16;5026879;28;19933;-70
2023/07/10 10:53:39;;;;;;;;;;;;;;;-144.99;70.92;51983.41;4678608;28;10000565;-70
2023/07/10 10:56:13;;;;;;;;;;;;;;;-144.99;69.68;51958.94;5010223;28;19929;-70
2023/07/10 10:58:50;;;;;;;;;;;;;;;-144.99;69.41;51987.47;5027140;28;19929;-70
2023/07/10 11:01:31;;;;;;;;;;;;;;;-144.99;68.93;52003.78;5025716;28;20078;-73
2023/07/10 11:04:02;;;;;;;;;;;;;;;-144.99;68.87;51983.41;5022049;28;20390;-70
2023/07/10 11:06:39;;;;;;;;;;;;;;;-144.99;68.49;51950.78;5026351;28;19969;-70
2023/07/10 11:09:09;;;;;;;;;;;;;;;-144.99;68.46;51967.09;5017650;28;20039;-73
2023/07/10 11:11:37;;;;;;;;;;;;;;;-144.99;68.46;52007.84;5018106;28;20012;-71
2023/07/10 11:14:04;;;;;;;;;;;;;;;-144.99;68.20;52040.47;5015057;28;19929;-71
2023/07/10 11:16:34;;;;;;;;;;;;;;;-144.99;68.40;51975.25;5021626;28;19948;-74
2023/07/10 11:19:01;;;;;;;;;;;;;;;-144.99;67.45;52003.78;5019777;28;19925;-70
2023/07/10 11:21:28;;;;;;;;;;;;;;;-144.99;67.96;51989.50;5025406;28;19933;-70
2023/07/10 11:23:55;;;;;;;;;;;;;;;-144.99;67.45;51950.78;5018988;28;19994;-71
2023/07/10 11:26:23;;;;;;;;;;;;;;;-144.99;67.02;52024.16;5023221;28;20309;-70
2023/07/10 11:28:51;;;;;;;;;;;;;;;-144.99;67.63;52050.66;5022427;28;19940;-71
2023/07/10 11:31:20;;;;;;;;;;;;;;;-144.99;67.12;51971.16;5018907;28;19935;-71
2023/07/10 11:33:51;;;;;;;;;;;;;;;-144.99;66.91;51993.59;5025331;28;20025;-71
2023/07/10 11:36:19;;;;;;;;;;;;;;;-144.99;67.00;51967.09;5023510;28;19925;-72
2023/07/10 11:38:55;;;;;;;;;;;;;;;-144.99;66.74;51965.06;5020064;28;19936;-74
2023/07/10 11:41:27;;;;;;;;;;;;;;;-144.99;66.65;51946.72;5027908;28;19929;-71
2023/07/10 11:43:57;;;;;;;;;;;;;;;-144.99;66.80;51981.38;5025772;28;20477;-74
2023/07/10 11:46:28;;;;;;;;;;;;;;;-144.99;66.80;51983.41;5013998;28;19985;-71
2023/07/10 11:49:15;;;;;;;;;;;;;;;-144.99;66.71;51963.03;5027218;28;20329;-71
2023/07/10 11:51:42;;;;;;;;;;;;;;;-144.99;66.16;51981.38;5016910;28;20355;-71
2023/07/10 11:54:27;;;;;;;;;;;;;;;-144.99;65.52;51938.56;5020363;28;19925;-72
2023/07/10 11:57:00;;;;;;;;;;;;;;;-144.99;64.85;51967.09;5018863;28;19933;-73
2023/07/10 11:59:27;;;;;;;;;;;;;;;-144.99;63.92;51946.72;5020706;28;19925;-72
2023/07/10 12:01:53;;;;;;;;;;;;;;;-144.99;64.42;52007.84;5025195;28;20409;-74
2023/07/10 12:04:22;;;;;;;;;;;;;;;-144.99;64.05;52003.78;5025734;28;19933;-71
2023/07/10 12:06:50;;;;;;;;;;;;;;;-144.99;63.35;51983.41;5024916;28;19971;-70
2023/07/10 12:09:16;;;;;;;;;;;;;;;-144.99;63.74;52038.44;5023263;28;19935;-73
2023/07/10 12:11:45;;;;;;;;;;;;;;;-144.99;63.91;51987.47;5020671;28;19928;-72
2023/07/10 12:14:12;;;;;;;;;;;;;;;-144.99;64.37;51997.66;5019290;28;20185;-71
2023/07/10 12:16:43;;;;;;;;;;;;;;;-144.99;64.91;52007.84;5022033;28;19932;-74
2023/07/10 12:19:13;;;;;;;;;;;;;;;-144.99;64.58;51971.16;5022553;28;19952;-72
2023/07/10 12:21:42;;;;;;;;;;;;;;;-144.99;63.19;51954.88;5017912;28;20308;-72
2023/07/10 12:24:12;;;;;;;;;;;;;;;-144.99;63.24;51963.03;5019612;28;20377;-70
2023/07/10 12:26:39;;;;;;;;;;;;;;;-144.99;62.68;52003.78;5018103;28;19929;-72